Abegall, Kentucky
Current Conditions -  °F | °C
As of 7:55 PM on Friday 28 Nov 2014 (Local Time) from KFGX Reporting Station
Clear Clear  
Wind Chill: 22°   Ceiling: Unl
Heat Index: 31°   Visibility: 10mi
Dew Point: 19°   Wind: 9mph
Humidity: 62%   Direction: 160°SSE
Pressure: 30.18"   Gusts: NA
Location:  38.6546°N, 83.9578°W
Report Text: KFGX 290055Z AUTO 16008KT 10SM CLR M01/M07 A3018 RMK AO2 T10081073
Loading
Personal Weather Stations






























Interactive Weather Map New forecast layout! Learn more

10-Day Weather Forecast

Advertisements
Track Severe Weather on mobile